Tiempo atmosférico en la estación meteorológica de VilagarcÍa de Arousa, Pontevedra (32 m.)



Fecha
DESCASC
Temp. máxima en grados centígrados (hora)
DESCASC
Temp. mínima en grados centígrados (hora)
DESCASC
Temp. media en grados centígrados
DESCASC
Racha de viento máxima en m/sg (hora)
DESCASC
Velocidad máxima media en intervalos de 10 minutos(hora)
DESCASC
Precipitaciones diarias en mm
DESCASC
Precipitaciones de 00:00 a 06:00 en mm
DESCASC
Precipitaciones de 06:00 a 12:00 en mm
DESCASC
Precipitaciones de 12:00 a 18:00 en mm
DESCASC
Precipitaciones de 18:00 a 24:00 en mm
DESCASC
04-03-2021 16.3 (16:10) 10.8 (08:20) 13.5 4.72 (09:30) 3.06 (11:40) 0 0 0 0 0
03-03-2021 18.4 (15:30) 6 (08:00) 12.2 4.44 (15:10) 3.33 (16:10) 0 0 0 0 0
02-03-2021 15.5 (15:40) 8.8 (23:59) 12.2 8.33 (12:40) 5 (12:00) 0 0 0 0 0
01-03-2021 13.8 (14:20) 6.1 (04:00) 10 9.72 (13:10) 5 (17:10) 0.6 0 0.4 0.2 0
28-02-2021 19.6 (16:30) 6.5 (00:00) 13.1 6.11 (17:10) 3.89 (17:30) 0 0 0 0 0
27-02-2021 20 (16:50) 7.5 (00:00) 13.8 6.67 (14:10) 3.89 (14:40) 0 0 0 0 0
26-02-2021 19.6 (15:50) 10.3 (00:00) 15 6.67 (00:20) 3.89 (14:40) 0 0 0 0 0
25-02-2021 13 (14:20) 9.4 (00:00) 11.2 6.67 (18:10) 3.89 (18:10) 2.2 2 0.2 0 0
24-02-2021 18.3 (12:50) 10.4 (00:00) 14.3 17.5 (13:10) 8.89 (13:10) 3.2 0 0 0 3.2
23-02-2021 16.1 (13:30) 10.5 (00:00) 13.3 12.78 (12:20) 6.39 (10:50) 0 0 0 0 0
22-02-2021 15.1 (15:00) 4.4 (00:00) 9.8 10 (16:10) 5.83 (16:10) 0 0 0 0 0
21-02-2021 13.2 (18:00) 6.3 (00:00) 9.8 8.89 (01:20) 6.11 (01:10) 6.4 3.8 2.4 0.2 0
20-02-2021 16.1 (04:10) 9.4 (00:00) 12.8 21.11 (10:00) 11.39 (10:00) 30.6 1 20.6 6.8 2.2
19-02-2021 15.6 (23:50) 11 (00:00) 13.3 18.61 (14:30) 9.72 (22:10) 1.2 0 0.4 0.2 0.6
18-02-2021 13.9 (15:00) 10.3 (00:00) 12.1 13.06 (03:50) 7.22 (04:10) 5.8 5.2 0.6 0 0
17-02-2021 14.7 (14:20) 8.5 (00:00) 11.6 19.44 (18:30) 10 (18:30) 12.4 0 0 7 5.4
16-02-2021 15.3 (15:40) 11.1 (00:00) 13.2 16.94 (05:50) 8.06 (05:30) 16.6 2.6 13.8 0.2 0
15-02-2021 21.2 (13:20) 13.8 (00:00) 17.5 12.22 (12:40) 5.83 (16:50) 0 0 0 0 0
14-02-2021 17.3 (12:30) 9.5 (00:00) 13.4 15.56 (16:00) 8.33 (13:30) 0 0 0 0 0
13-02-2021 14.8 (17:00) 12.1 (00:00) 13.5 10.83 (13:50) 5.56 (16:20) 1.6 0 1.6 0 0
12-02-2021 14.7 (14:40) 11.3 (00:00) 13 10.56 (00:50) 5.56 (00:50) 1.8 1.4 0.4 0 0
11-02-2021 14.9 (14:30) 10.3 (00:00) 12.6 12.5 (10:30) 6.39 (13:00) 49.2 5 14.4 9 20.8
10-02-2021 13.1 (14:40) 5.5 (00:00) 9.3 11.11 (01:30) 6.39 (01:30) 3.8 0.2 0 0 3.6
09-02-2021 12.5 (12:50) 9 (00:00) 10.8 18.89 (07:00) 9.72 (07:00) 20.8 8.8 3.6 5 3.4
08-02-2021 12.2 (15:50) 8.9 (00:00) 10.5 12.5 (12:50) 7.22 (12:50) 22.2 4.6 7.6 6.4 3.6
07-02-2021 12.6 (20:20) 2.5 (00:00) 7.6 13.61 (22:20) 6.67 (22:20) 19.6 0 0.4 3.8 15.4
06-02-2021 11.9 (16:00) 4.8 (00:00) 8.3 11.39 (05:30) 6.11 (04:20) 0.4 0.4 0 0 0
05-02-2021 13 (14:50) 5.7 (00:00) 9.3 11.11 (21:00) 5.83 (19:30) 0 0 0 0 0
04-02-2021 14.6 (15:10) 8.1 (00:00) 11.4 8.61 (00:50) 3.89 (01:00) 3.2 0.4 0 0.6 2.2
03-02-2021 14.7 (13:20) 10.2 (00:00) 12.4 14.72 (00:40) 8.33 (00:50) 4.2 1.8 0 0 2.4

Gráficas

Temp. máximas Temp. mínimas Temp. medias Precipitaciones Rachas de viento máximas Velocidades máximas media en intervalos de 10 minutos

Datos horarios

Fecha y hora oficial Temperatura (ºC) Velocidad del viento (km/h) Dirección del viento Racha (km/h) Dirección de racha Precipitación (mm) Presión (hPa) Tendencia (hPa) Humedad (%)
2021-03-04 23:00:00 12.4 7 Este 11 Sudeste 0 -- -- 93
2021-03-04 22:00:00 12.5 6 Este 8 Este 0 -- -- 91
2021-03-04 21:00:00 13.1 0 Calma 6 Sudeste 0 -- -- 86
2021-03-04 20:00:00 14.1 4 Sudeste 8 Oeste 0 -- -- 86
2021-03-04 19:00:00 15.4 4 Oeste 9 Sudoeste 0 -- -- 81
2021-03-04 18:00:00 16.1 6 Oeste 9 Oeste 0 -- -- 77
2021-03-04 17:00:00 16.3 5 Noroeste 9 Noroeste 0 -- -- 75
2021-03-04 16:00:00 16.2 4 Noroeste 10 Noroeste 0 -- -- 75
2021-03-04 15:00:00 15.9 7 Noroeste 13 Noroeste 0 -- -- 75
2021-03-04 14:00:00 15.5 6 Noroeste 12 Noroeste 0 -- -- 75
2021-03-04 13:00:00 15.1 5 Norte 15 Norte 0 -- -- 78
2021-03-04 12:00:00 13.6 8 Noroeste 15 Noroeste 0 -- -- 83
2021-03-04 11:00:00 13 5 Noroeste 8 Noroeste 0 -- -- 90
2021-03-04 10:00:00 11.8 3 Noroeste 17 Sudoeste 0 -- -- 90
2021-03-04 09:00:00 11 5 Noroeste 9 Oeste 0 -- -- 93
2021-03-04 08:00:00 10.9 0 Calma 7 Sur 0 -- -- 93
2021-03-04 07:00:00 11.1 5 Sudeste 12 Este 0 -- -- 92
2021-03-04 06:00:00 11.7 8 Este 12 Este 0 -- -- 89
2021-03-04 05:00:00 11.1 4 Este 9 Sudeste 0 -- -- 91
2021-03-04 04:00:00 11.3 6 Este 10 Noroeste 0 -- -- 92
2021-03-04 03:00:00 12.4 5 Oeste 10 Sudoeste 0 -- -- 88
2021-03-04 02:00:00 12.1 6 Sudeste 11 Sudeste 0 -- -- 89
2021-03-04 01:00:00 12.3 2 Este 10 Este 0 -- -- 89
2021-03-04 00:00:00 12 3 Este 8 Sudeste 0 -- -- 90
2021-03-03 23:00:00 12.2 4 Sur 9 Este 0 -- -- 88
2021-03-03 22:00:00 12.7 3 Sudeste 9 Sudeste 0 -- -- 86
2021-03-03 21:00:00 12.9 5 Sur 8 Sur 0 -- -- 82
2021-03-03 20:00:00 14.2 5 Sur 8 Sur 0 -- -- 78
2021-03-03 19:00:00 16.6 2 Norte 7 Norte 0 -- -- 67
2021-03-03 18:00:00 17.1 5 Norte 12 Oeste 0 -- -- 65
2021-03-03 17:00:00 17.8 10 Oeste 16 Noroeste 0 -- -- 62
2021-03-03 16:00:00 18.3 10 Noroeste 16 Noroeste 0 -- -- 61
2021-03-03 15:00:00 17.8 11 Noroeste 15 Oeste 0 -- -- 62
2021-03-03 14:00:00 16.5 10 Noroeste 14 Noroeste 0 -- -- 64
2021-03-03 13:00:00 15.6 5 Noroeste 13 Noroeste 0 -- -- 70
2021-03-03 12:00:00 14.1 6 Norte 8 Norte 0 -- -- 78
2021-03-03 11:00:00 12.8 3 Nordeste 8 Nordeste 0 -- -- 80
2021-03-03 10:00:00 9.7 3 Sudeste 6 Este 0 -- -- 96
2021-03-03 09:00:00 7 6 Este 8 Este 0 -- -- 100
2021-03-03 08:00:00 6 6 Este 7 Sudeste 0 -- -- 100
2021-03-03 07:00:00 6.4 4 Este 8 Este 0 -- -- 99
2021-03-03 06:00:00 7.3 6 Este 8 Este 0 -- -- 98
2021-03-03 05:00:00 7.7 5 Sudeste 9 Sudeste 0 -- -- 100
2021-03-03 04:00:00 7.6 5 Este 8 Sudeste 0 -- -- 99
2021-03-03 03:00:00 8.1 6 Este 8 Este 0 -- -- 99
2021-03-03 02:00:00 8.3 4 Sudeste 8 Sudeste 0 -- -- 98
2021-03-03 01:00:00 8.4 3 Este 6 Este 0 -- -- 97
2021-03-03 00:00:00 8.8 5 Este 6 Este 0 -- -- 95
2021-03-02 23:00:00 9.5 4 Este 8 Este 0 -- -- 93
2021-03-02 22:00:00 10.1 4 Sudeste 6 Sudeste 0 -- -- 90
2021-03-02 21:00:00 11.3 3 Sudeste 7 Sur 0 -- -- 86
2021-03-02 20:00:00 12.6 4 Sur 11 Sudoeste 0 -- -- 80
2021-03-02 19:00:00 14.1 8 Sudoeste 15 Sudoeste 0 -- -- 70
2021-03-02 18:00:00 14.4 9 Oeste 21 Sudoeste 0 -- -- 69
2021-03-02 17:00:00 14.9 15 Sudoeste 23 Oeste 0 -- -- 63
2021-03-02 16:00:00 15.4 14 Oeste 28 Sudoeste 0 -- -- 64
2021-03-02 15:00:00 15.2 14 Sudoeste 26 Sudoeste 0 -- -- 68
2021-03-02 14:00:00 14.5 15 Sudoeste 26 Oeste 0 -- -- 72
2021-03-02 13:00:00 14.3 14 Sudoeste 30 Sudoeste 0 -- -- 69
2021-03-02 12:00:00 14.7 18 Sudoeste 29 Sudoeste 0 -- -- 65
2021-03-02 11:00:00 13.9 9 Sur 20 Sur 0 -- -- 76
2021-03-02 10:00:00 12.6 7 Sur 15 Sur 0 -- -- 82
2021-03-02 09:00:00 11.6 8 Sur 17 Sur 0 -- -- 86
2021-03-02 08:00:00 11.7 5 Sur 11 Sudoeste 0 -- -- 90
2021-03-02 07:00:00 12.2 7 Sudoeste 15 Sudoeste 0 -- -- 88
2021-03-02 06:00:00 12.2 7 Sur 20 Sudoeste 0 -- -- 88
2021-03-02 05:00:00 12.4 6 Sudoeste 18 Oeste 0 -- -- 85
2021-03-02 04:00:00 12.3 6 Sudoeste 24 Sur 0 -- -- 81
2021-03-02 03:00:00 12.4 10 Sur 23 Sudoeste 0 -- -- 84
2021-03-02 02:00:00 12.4 10 Sur 21 Sur 0 -- -- 84
2021-03-02 01:00:00 12.3 8 Sudoeste 22 Sudoeste 0 -- -- 86
2021-03-02 00:00:00 12.2 9 Sur 22 Sudoeste 0 -- -- 85
2021-03-01 23:00:00 12.2 8 Sur 17 Sudoeste 0 -- -- 86
2021-03-01 22:00:00 12.4 7 Sur 22 Sudoeste 0 -- -- 85
2021-03-01 21:00:00 12.7 12 Sudoeste 27 Sudoeste 0 -- -- 86
2021-03-01 20:00:00 13.1 9 Sudoeste 26 Sur 0 -- -- 83
2021-03-01 19:00:00 13.4 12 Sudoeste 35 Sudoeste 0 -- -- 81
2021-03-01 18:00:00 13.6 13 Sudoeste 30 Sur 0 -- -- 82
2021-03-01 17:00:00 13.6 13 Sudoeste 31 Sudoeste 0.2 -- -- 84
2021-03-01 16:00:00 13.7 12 Sudoeste 31 Sudoeste 0 -- -- 84
2021-03-01 15:00:00 13.8 15 Sudoeste 32 Sudoeste 0 -- -- 84
2021-03-01 14:00:00 13.3 13 Sudoeste 35 Sudoeste 0 -- -- 86
2021-03-01 13:00:00 13.4 16 Sudoeste 31 Sudoeste 0 -- -- 86
2021-03-01 12:00:00 13.2 13 Sudoeste 35 Sudoeste 0 -- -- 89
2021-03-01 11:00:00 12.8 8 Sur 26 Sudoeste 0 -- -- 92
2021-03-01 10:00:00 12.1 10 Sur 28 Sur 0 -- -- 94
2021-03-01 09:00:00 11.1 9 Sur 16 Sur 0 -- -- 97
2021-03-01 08:00:00 9.7 5 Sudeste 21 Sur 0.4 -- -- 95
2021-03-01 07:00:00 8.8 6 Este 12 Sudeste 0 -- -- 90
2021-03-01 06:00:00 7.7 8 Este 18 Sudeste 0 -- -- 93
2021-03-01 05:00:00 6.6 5 Este 13 Este 0 -- -- 93
2021-03-01 04:00:00 6.1 7 Este 10 Este 0 -- -- 94
2021-03-01 03:00:00 6.3 6 Sudeste 11 Sudeste 0 -- -- 93
2021-03-01 02:00:00 7.3 5 Sur 7 Sur 0 -- -- 89
2021-03-01 01:00:00 8.1 5 Este 9 Sudeste 0 -- -- 86
2021-03-01 00:00:00 8.9 4 Sudeste 9 Sudeste 0 -- -- 86
2021-02-28 23:00:00 10.2 5 Norte 8 Norte 0 -- -- 81
2021-02-28 22:00:00 10.1 2 Sudeste 7 Sur 0 -- -- 85
2021-02-28 21:00:00 11.3 4 Sudeste 9 Oeste 0 -- -- 79
2021-02-28 20:00:00 13.5 0 Calma 12 Sudoeste 0 -- -- 73
2021-02-28 19:00:00 15.1 7 Sudoeste 18 Sudoeste 0 -- -- 74
2021-02-28 18:00:00 17.5 10 Oeste 22 Sudoeste 0 -- -- 67
2021-02-28 17:00:00 19.1 8 Oeste 14 Sudoeste 0 -- -- 55
2021-02-28 16:00:00 19 10 Norte 20 Norte 0 -- -- 50
2021-02-28 15:00:00 18.4 11 Norte 18 Norte 0 -- -- 51
2021-02-28 14:00:00 17.5 7 Norte 15 Norte 0 -- -- 56
2021-02-28 13:00:00 15.7 7 Norte 14 Norte 0 -- -- 66
2021-02-28 12:00:00 13.2 4 Norte 10 Norte 0 -- -- 70
2021-02-28 11:00:00 12 3 Nordeste 12 Este 0 -- -- 76
2021-02-28 10:00:00 9.8 5 Este 14 Sudeste 0 -- -- 83
2021-02-28 09:00:00 7.2 5 Este 12 Sudeste 0 -- -- 91
2021-02-28 08:00:00 6.5 6 Sudeste 12 Este 0 -- -- 93
2021-02-28 07:00:00 6.8 6 Sudeste 10 Sudeste 0 -- -- 93
2021-02-28 06:00:00 6.8 5 Sudeste 9 Sudeste 0 -- -- 94
2021-02-28 05:00:00 7.3 5 Este 11 Sudeste 0 -- -- 92
2021-02-28 04:00:00 7.8 4 Este 8 Sur 0 -- -- 92
2021-02-28 03:00:00 8.3 4 Este 9 Sudeste 0 -- -- 90
2021-02-28 02:00:00 9 3 Sudeste 6 Sudeste 0 -- -- 88
2021-02-28 01:00:00 10 0 Calma 5 Sudeste 0 -- -- 86
2021-02-28 00:00:00 11 2 Sudeste 9 Sur 0 -- -- 83
2021-02-27 23:00:00 12.2 5 Sur 9 Sur 0 -- -- 79
2021-02-27 22:00:00 13.5 0 Calma 12 Norte 0 -- -- 76
2021-02-27 21:00:00 15 4 Nordeste 10 Nordeste 0 -- -- 73
2021-02-27 20:00:00 16 2 Este 13 Nordeste 0 -- -- 70
2021-02-27 19:00:00 17.8 8 Nordeste 24 Nordeste 0 -- -- 66
2021-02-27 18:00:00 19.5 10 Nordeste 21 Nordeste 0 -- -- 60
2021-02-27 17:00:00 20 11 Nordeste 23 Nordeste 0 -- -- 59
2021-02-27 16:00:00 19.9 11 Norte 22 Nordeste 0 -- -- 60
2021-02-27 15:00:00 19 13 Nordeste 24 Norte 0 -- -- 63
2021-02-27 14:00:00 17.6 13 Norte 22 Norte 0 -- -- 67
2021-02-27 13:00:00 16.3 11 Norte 18 Norte 0 -- -- 70
2021-02-27 12:00:00 14.5 9 Norte 16 Norte 0 -- -- 75
2021-02-27 11:00:00 12.8 9 Norte 14 Norte 0 -- -- 81
2021-02-27 10:00:00 10.2 4 Noroeste 7 Oeste 0 -- -- 93
2021-02-27 09:00:00 7.9 4 Sudeste 8 Sudeste 0 -- -- 97
2021-02-27 08:00:00 7.7 4 Sudeste 8 Sudeste 0 -- -- 96
2021-02-27 07:00:00 7.9 0 Calma 8 Sur 0 -- -- 95
2021-02-27 06:00:00 8.8 4 Sur 7 Sudeste 0 -- -- 94
2021-02-27 05:00:00 8.6 0 Calma 5 Sudeste 0 -- -- 94
2021-02-27 04:00:00 9 3 Sudeste 6 Sur 0 -- -- 92
2021-02-27 03:00:00 10.4 4 Sudoeste 10 Sudoeste 0 -- -- 88
2021-02-27 02:00:00 11.1 8 Sudoeste 13 Sudoeste 0 -- -- 87
2021-02-27 01:00:00 11.3 3 Sur 5 Sur 0 -- -- 84
2021-02-27 00:00:00 11.9 3 Sudoeste 7 Este 0 -- -- 83
2021-02-26 23:00:00 12.9 2 Nordeste 17 Norte 0 -- -- 80
2021-02-26 22:00:00 14.1 8 Norte 14 Este 0 -- -- 76
2021-02-26 21:00:00 15.4 9 Este 19 Este 0 -- -- 74
2021-02-26 20:00:00 16.5 3 Sudeste 18 Nordeste 0 -- -- 73
2021-02-26 19:00:00 18 4 Nordeste 20 Norte 0 -- -- 70
2021-02-26 18:00:00 19 9 Nordeste 23 Norte 0 -- -- 64
2021-02-26 17:00:00 19.4 11 Norte 20 Nordeste 0 -- -- 62
2021-02-26 16:00:00 19.5 10 Norte 19 Norte 0 -- -- 63
2021-02-26 15:00:00 18.7 12 Norte 23 Norte 0 -- -- 66
2021-02-26 14:00:00 18 10 Norte 17 Norte 0 -- -- 68
2021-02-26 13:00:00 16.4 12 Norte 18 Norte 0 -- -- 72
2021-02-26 12:00:00 14.3 8 Norte 17 Norte 0 -- -- 78
2021-02-26 11:00:00 12.5 12 Norte 19 Norte 0 -- -- 83
2021-02-26 10:00:00 12 3 Sudoeste 14 Este 0 -- -- 83
2021-02-26 09:00:00 11 7 Nordeste 18 Norte 0 -- -- 86
2021-02-26 08:00:00 10.8 7 Norte 15 Nordeste 0 -- -- 86
2021-02-26 07:00:00 10.7 5 Norte 17 Nordeste 0 -- -- 86
2021-02-26 06:00:00 10.7 4 Nordeste 15 Nordeste 0 -- -- 86
2021-02-26 05:00:00 10.4 5 Nordeste 20 Norte 0 -- -- 87
2021-02-26 04:00:00 10.7 13 Norte 22 Norte 0 -- -- 87
2021-02-26 03:00:00 10.8 4 Este 12 Nordeste 0 -- -- 84
2021-02-26 02:00:00 11.6 6 Norte 16 Norte 0 -- -- 82
2021-02-26 01:00:00 11.5 6 Nordeste 24 Este 0 -- -- 83
2021-02-26 00:00:00 11.4 8 Este 21 Este 0 -- -- 84
2021-02-25 23:00:00 11 7 Norte 17 Nordeste 0 -- -- 87
2021-02-25 22:00:00 11.1 8 Norte 17 Nordeste 0 -- -- 87
2021-02-25 21:00:00 11.4 8 Nordeste 19 Nordeste 0 -- -- 86
2021-02-25 20:00:00 11.5 10 Nordeste 23 Nordeste 0 -- -- 86
2021-02-25 19:00:00 11.4 12 Nordeste 24 Nordeste 0 -- -- 88
2021-02-25 18:00:00 11.6 12 Nordeste 23 Norte 0 -- -- 87
2021-02-25 17:00:00 11.8 10 Nordeste 21 Nordeste 0 -- -- 84
2021-02-25 16:00:00 12.3 12 Nordeste 22 Nordeste 0 -- -- 80
2021-02-25 15:00:00 12.3 8 Nordeste 19 Nordeste 0 -- -- 82
2021-02-25 14:00:00 12.5 9 Norte 15 Norte 0 -- -- 84
2021-02-25 13:00:00 11.3 10 Norte 21 Nordeste 0 -- -- 90
2021-02-25 12:00:00 10.8 12 Norte 19 Norte 0 -- -- 91
2021-02-25 11:00:00 10.4 5 Nordeste 13 Nordeste 0 -- -- 91
2021-02-25 10:00:00 9.9 4 Nordeste 15 Este 0 -- -- 93
2021-02-25 09:00:00 9.7 6 Nordeste 14 Este 0 -- -- 94
2021-02-25 08:00:00 9.6 6 Norte 13 Nordeste 0 -- -- 96
2021-02-25 07:00:00 9.6 6 Norte 19 Norte 0.2 -- -- 96
2021-02-25 06:00:00 9.5 6 Norte 11 Norte 0 -- -- 97
2021-02-25 05:00:00 9.5 6 Oeste 10 Oeste 0 -- -- 98
2021-02-25 04:00:00 9.6 3 Oeste 15 Nordeste 0 -- -- 97
2021-02-25 03:00:00 9.7 4 Norte 21 Este 0.4 -- -- 97
2021-02-25 02:00:00 9.7 10 Sudeste 18 Este 1 -- -- 97
2021-02-25 01:00:00 9.9 13 Sudeste 19 Sudeste 0.6 -- -- 97
2021-02-25 00:00:00 10.4 9 Sudeste 17 Sur 1.4 -- -- 95
2021-02-24 23:00:00 10.9 6 Noroeste 18 Norte 0.8 -- -- 88
2021-02-24 22:00:00 11 11 Noroeste 20 Noroeste 0.8 -- -- 91
2021-02-24 21:00:00 11.9 6 Sur 42 Sudoeste 0.2 -- -- 91
2021-02-24 20:00:00 14.7 10 Sur 34 Sur 0 -- -- 76
2021-02-24 19:00:00 14.9 15 Sudoeste 36 Sudoeste 0 -- -- 73
2021-02-24 18:00:00 15 17 Sudoeste 39 Oeste 0 -- -- 73
2021-02-24 17:00:00 15.8 23 Sudoeste 43 Sudoeste 0 -- -- 67
2021-02-24 16:00:00 17.3 19 Sudoeste 46 Sur 0 -- -- 57
2021-02-24 15:00:00 17.9 15 Sudoeste 41 Sudoeste 0 -- -- 57
2021-02-24 14:00:00 18.2 22 Sur 63 Sur 0 -- -- 50
2021-02-24 13:00:00 18.3 17 Sur 52 Sur 0 -- -- 48
2021-02-24 12:00:00 17.6 24 Sur 53 Sur 0 -- -- 48
2021-02-24 11:00:00 16.2 20 Sur 43 Sudoeste 0 -- -- 51
2021-02-24 10:00:00 15.5 16 Sur 39 Sur 0 -- -- 52
2021-02-24 09:00:00 14.8 15 Sur 36 Sudeste 0 -- -- 53
2021-02-24 08:00:00 14.3 15 Sur 39 Sudeste 0 -- -- 54
2021-02-24 07:00:00 14.7 19 Sur 35 Sur 0 -- -- 50
2021-02-24 06:00:00 14.9 13 Sur 31 Sur 0 -- -- 50
2021-02-24 05:00:00 15.4 16 Sur 36 Sur 0 -- -- 50
2021-02-24 04:00:00 15.8 14 Sur 39 Sur 0 -- -- 50
2021-02-24 03:00:00 16.1 14 Sur 41 Sudeste 0 -- -- 48
2021-02-24 02:00:00 16.1 15 Sur 33 Sur 0 -- -- 52
2021-02-24 01:00:00 14.9 12 Sur 27 Sur 0 -- -- 67
2021-02-24 00:00:00 14.9 9 Sur 24 Sudoeste 0 -- -- 78
2021-02-23 23:00:00 15.2 8 Sudoeste 33 Sudoeste 0 -- -- 78
2021-02-23 22:00:00 15.5 17 Sudoeste 36 Sur 0 -- -- 78
2021-02-23 21:00:00 15.2 12 Sur 33 Sudoeste 0 -- -- 79
2021-02-23 20:00:00 15.5 9 Sur 24 Sur 0 -- -- 72
2021-02-23 19:00:00 15.8 13 Sur 37 Sudoeste 0 -- -- 71
2021-02-23 18:00:00 15.9 13 Sudoeste 26 Sur 0 -- -- 74
2021-02-23 17:00:00 15.3 9 Sur 27 Sur 0 -- -- 81
2021-02-23 16:00:00 15.4 15 Sur 35 Sur 0 -- -- 78
2021-02-23 15:00:00 15.8 9 Sur 33 Sur 0 -- -- 75
2021-02-23 14:00:00 16 16 Sudoeste 42 Sur 0 -- -- 69
2021-02-23 13:00:00 15.5 20 Sur 46 Sur 0 -- -- 74
2021-02-23 12:00:00 14.9 18 Sur 42 Sur 0 -- -- 76
2021-02-23 11:00:00 14.5 20 Sur 43 Sur 0 -- -- 75
2021-02-23 10:00:00 13.3 19 Sur 39 Sur 0 -- -- 82
2021-02-23 09:00:00 13 15 Sur 39 Sur 0 -- -- 80
2021-02-23 08:00:00 13.7 19 Sur 35 Sur 0 -- -- 74
2021-02-23 07:00:00 14.4 16 Sur 40 Sur 0 -- -- 67
2021-02-23 06:00:00 14.3 15 Sur 36 Sur 0 -- -- 66
2021-02-23 05:00:00 14 13 Sur 33 Sur 0 -- -- 66
2021-02-23 04:00:00 14 13 Sur 37 Sur 0 -- -- 66
2021-02-23 03:00:00 13.9 17 Sur 31 Sudeste 0 -- -- 65
2021-02-23 02:00:00 13.4 13 Sur 26 Sur 0 -- -- 66
2021-02-23 01:00:00 12.3 15 Sudeste 26 Sudeste 0 -- -- 72
2021-02-23 00:00:00 10.5 13 Sudeste 18 Sudeste 0 -- -- 80
2021-02-22 23:00:00 10.7 12 Sudeste 17 Sudeste 0 -- -- 78
2021-02-22 22:00:00 11.7 9 Sudeste 17 Sudeste 0 -- -- 71
2021-02-22 21:00:00 11.9 9 Sur 16 Sur 0 -- -- 71
2021-02-22 20:00:00 12.4 8 Sur 22 Sur 0 -- -- 70
2021-02-22 19:00:00 13.2 8 Sudoeste 20 Sur 0 -- -- 72
2021-02-22 18:00:00 14.8 9 Sur 34 Sur 0 -- -- 65
2021-02-22 17:00:00 15.1 17 Sudoeste 36 Sudoeste 0 -- -- 62
2021-02-22 16:00:00 14.7 20 Sudoeste 33 Sudoeste 0 -- -- 64
2021-02-22 15:00:00 15.1 10 Sur 32 Sudoeste 0 -- -- 60
2021-02-22 14:00:00 14.9 13 Sur 24 Sur 0 -- -- 57
2021-02-22 13:00:00 13.9 12 Sur 26 Sudoeste 0 -- -- 60
2021-02-22 12:00:00 13.3 12 Sur 24 Sudeste 0 -- -- 65
2021-02-22 11:00:00 10.7 11 Sudeste 22 Sudeste 0 -- -- 76
2021-02-22 10:00:00 8.7 10 Sudeste 19 Este 0 -- -- 84
2021-02-22 09:00:00 6.1 7 Este 14 Este 0 -- -- 96
2021-02-22 08:00:00 4.9 10 Este 14 Este 0 -- -- 99
2021-02-22 07:00:00 4.9 8 Este 14 Este 0 -- -- 99
2021-02-22 06:00:00 4.6 4 Este 12 Este 0 -- -- 97
2021-02-22 05:00:00 5.2 9 Sudeste 12 Este 0 -- -- 97
2021-02-22 04:00:00 5.9 7 Sudeste 10 Sudeste 0 -- -- 95
2021-02-22 03:00:00 6.4 3 Nordeste 9 Este 0 -- -- 96
2021-02-22 02:00:00 6.1 6 Este 11 Este 0 -- -- 97
2021-02-22 01:00:00 5.9 8 Este 9 Este 0 -- -- 97
2021-02-22 00:00:00 6.4 4 Sudeste 6 Este 0 -- -- 96
2021-02-21 23:00:00 6.5 4 Sudeste 7 Sudeste 0 -- -- 95
2021-02-21 22:00:00 7.3 5 Sudeste 8 Sur 0 -- -- 92
2021-02-21 21:00:00 8.6 4 Sur 9 Noroeste 0 -- -- 85
2021-02-21 20:00:00 10.6 7 Noroeste 17 Oeste 0 -- -- 76
2021-02-21 19:00:00 11.6 11 Oeste 21 Oeste 0 -- -- 72
2021-02-21 18:00:00 13.2 9 Oeste 22 Oeste 0 -- -- 66
2021-02-21 17:00:00 13 11 Oeste 23 Oeste 0 -- -- 72
2021-02-21 16:00:00 12.5 13 Oeste 23 Sudoeste 0 -- -- 70
2021-02-21 15:00:00 11 15 Oeste 29 Oeste 0.2 -- -- 74
2021-02-21 14:00:00 11.9 9 Oeste 18 Sudoeste 0 -- -- 82
2021-02-21 13:00:00 10.8 10 Oeste 16 Sudoeste 0 -- -- 83
2021-02-21 12:00:00 9.3 4 Sudoeste 9 Oeste 0 -- -- 93
2021-02-21 11:00:00 8.5 3 Sudeste 7 Sudeste 0 -- -- 99
2021-02-21 10:00:00 7.7 4 Sudeste 7 Sudeste 0 -- -- 100
2021-02-21 09:00:00 7.4 0 Calma 20 Sudeste 0 -- -- 99
2021-02-21 08:00:00 7.7 9 Este 23 Norte 0.4 -- -- 97
2021-02-21 07:00:00 7.9 8 Sudeste 10 Sudeste 2 -- -- 99
2021-02-21 06:00:00 8 4 Sur 14 Este 1.2 -- -- 99
2021-02-21 05:00:00 8.3 5 Oeste 15 Este 0.6 -- -- 98
2021-02-21 04:00:00 8.3 7 Este 23 Este 0.4 -- -- 98
2021-02-21 03:00:00 8.6 13 Este 24 Sudeste 0.2 -- -- 97
2021-02-21 02:00:00 8.8 13 Este 32 Sudeste 0.2 -- -- 97
2021-02-21 01:00:00 9.1 14 Sudeste 25 Sudeste 1.2 -- -- 96
2021-02-21 00:00:00 9.4 5 Sudeste 12 Sur 0.2 -- -- 97
2021-02-20 23:00:00 9.7 6 Este 13 Nordeste 0.2 -- -- 96
2021-02-20 22:00:00 10 4 Este 16 Sur 0 -- -- 94
2021-02-20 21:00:00 10.6 9 Sur 22 Sur 0 -- -- 90
2021-02-20 20:00:00 10.9 12 Sur 24 Sur 0.2 -- -- 90
2021-02-20 19:00:00 11 7 Sudeste 28 Sur 1.6 -- -- 95
2021-02-20 18:00:00 12 18 Sur 36 Sudoeste 1 -- -- 90
2021-02-20 17:00:00 12.3 12 Sur 26 Sur 0 -- -- 95
2021-02-20 16:00:00 12.1 10 Sur 28 Sudoeste 0.4 -- -- 96
2021-02-20 15:00:00 11.9 25 Sudoeste 52 Oeste 1.6 -- -- 93
2021-02-20 14:00:00 13.8 21 Sudoeste 52 Sudoeste 0 -- -- 95
2021-02-20 13:00:00 14 23 Sudoeste 59 Sudoeste 3.8 -- -- 96
2021-02-20 12:00:00 14.2 35 Sur 72 Sudoeste 1 -- -- 91
2021-02-20 11:00:00 13.6 23 Sur 64 Sur 7.4 -- -- 95
2021-02-20 10:00:00 14 41 Sur 76 Sur 1.2 -- -- 90
2021-02-20 09:00:00 13.9 32 Sur 61 Sur 2.6 -- -- 90
2021-02-20 08:00:00 13.3 25 Sur 54 Sudeste 6.8 -- -- 91
2021-02-20 07:00:00 14.5 27 Sur 71 Sur 1.6 -- -- 81
2021-02-20 06:00:00 16 33 Sur 68 Sur 0 -- -- 70
2021-02-20 05:00:00 16 30 Sur 68 Sur 0 -- -- 72
2021-02-20 04:00:00 16 30 Sur 69 Sur 0 -- -- 70
2021-02-20 03:00:00 15.6 33 Sur 74 Sur 0.2 -- -- 73
2021-02-20 02:00:00 15.1 32 Sur 69 Sur 0.8 -- -- 79
2021-02-20 01:00:00 15.8 32 Sur 69 Sudoeste 0 -- -- 73
2021-02-20 00:00:00 15.6 29 Sur 62 Sudoeste 0.2 -- -- 72
2021-02-19 23:00:00 14.8 28 Sur 67 Sur 0.4 -- -- 83
2021-02-19 22:00:00 15.3 31 Sur 65 Sudeste 0 -- -- 80
2021-02-19 21:00:00 15.1 25 Sur 59 Sur 0 -- -- 79
2021-02-19 20:00:00 15.4 25 Sur 54 Sudoeste 0 -- -- 77
2021-02-19 19:00:00 15.2 19 Sur 49 Sur 0 -- -- 79
2021-02-19 18:00:00 15.2 25 Sur 52 Sudoeste 0 -- -- 79
2021-02-19 17:00:00 15.4 26 Sur 55 Sur 0 -- -- 79
2021-02-19 16:00:00 13.8 25 Sudoeste 65 Sudoeste 0 -- -- 93
2021-02-19 15:00:00 14.2 19 Sur 67 Sudoeste 0 -- -- 89
2021-02-19 14:00:00 14.4 22 Sur 57 Sudoeste 0.2 -- -- 88
2021-02-19 13:00:00 15.1 30 Sur 62 Sur 0 -- -- 82
2021-02-19 12:00:00 14.7 22 Sur 59 Sudeste 0.2 -- -- 83
2021-02-19 11:00:00 14.1 18 Sur 45 Sudoeste 0.2 -- -- 88
2021-02-19 10:00:00 14.9 18 Sur 48 Sur 0 -- -- 77
2021-02-19 09:00:00 14 22 Sur 43 Sur 0 -- -- 80
2021-02-19 08:00:00 13.4 14 Sur 34 Sur 0 -- -- 79
2021-02-19 07:00:00 12.8 14 Sur 31 Sur 0 -- -- 82
2021-02-19 06:00:00 12.1 10 Sur 24 Sur 0 -- -- 78
2021-02-19 05:00:00 11.8 10 Sur 23 Sur 0 -- -- 82
2021-02-19 04:00:00 11.9 15 Sur 32 Sudeste 0 -- -- 83
2021-02-19 03:00:00 11.6 14 Sur 33 Sur 0 -- -- 81
2021-02-19 02:00:00 11.3 13 Sur 27 Sur 0 -- -- 83
2021-02-19 01:00:00 11.2 12 Sur 27 Sur 0 -- -- 84
2021-02-19 00:00:00 11.1 14 Sur 27 Sur 0 -- -- 82
2021-02-18 23:00:00 10.6 11 Sur 21 Sur 0 -- -- 84
2021-02-18 22:00:00 11 9 Sur 20 Sur 0 -- -- 86
2021-02-18 21:00:00 11.5 6 Sudoeste 18 Sudoeste 0 -- -- 80
2021-02-18 20:00:00 11.5 8 Sur 21 Sudoeste 0 -- -- 76
2021-02-18 19:00:00 12.3 9 Sudoeste 27 Sudoeste 0 -- -- 78
2021-02-18 18:00:00 13.2 15 Sudoeste 34 Sudoeste 0 -- -- 73
2021-02-18 17:00:00 13.7 11 Sudoeste 33 Sudoeste 0 -- -- 70
2021-02-18 16:00:00 13.4 15 Sudoeste 36 Sudoeste 0 -- -- 73
2021-02-18 15:00:00 13.9 18 Sudoeste 33 Sudoeste 0 -- -- 68
2021-02-18 14:00:00 13.2 17 Sudoeste 30 Sudoeste 0 -- -- 70
2021-02-18 13:00:00 12 12 Sudoeste 22 Oeste 0 -- -- 80
2021-02-18 12:00:00 12.3 12 Oeste 27 Sudoeste 0 -- -- 86
2021-02-18 11:00:00 11.7 9 Sudoeste 15 Sudoeste 0 -- -- 89
2021-02-18 10:00:00 10.5 12 Sudoeste 23 Sudoeste 0 -- -- 89
2021-02-18 09:00:00 10.7 6 Sudoeste 24 Oeste 0 -- -- 91
2021-02-18 08:00:00 10.9 13 Sudoeste 22 Sudoeste 0.2 -- -- 96
2021-02-18 07:00:00 10.7 12 Oeste 28 Oeste 0.4 -- -- 96
2021-02-18 06:00:00 10.6 12 Oeste 25 Oeste 2 -- -- 99
2021-02-18 05:00:00 10.5 11 Sudoeste 45 Sudoeste 3.2 -- -- 98
2021-02-18 04:00:00 13.8 24 Sudoeste 47 Sudoeste 0 -- -- 88
2021-02-18 03:00:00 13.7 22 Sudoeste 44 Sudoeste 0 -- -- 91
2021-02-18 02:00:00 13.6 21 Sudoeste 40 Sudoeste 0 -- -- 91
2021-02-18 01:00:00 13.5 17 Sudoeste 37 Sudoeste 0 -- -- 88
2021-02-18 00:00:00 13.7 17 Sudoeste 40 Sudoeste 0 -- -- 89
2021-02-17 23:00:00 13.4 14 Sudoeste 36 Sudoeste 0 -- -- 92
2021-02-17 22:00:00 13.4 17 Sudoeste 40 Sudoeste 0 -- -- 91
2021-02-17 21:00:00 13.6 21 Sudoeste 48 Sudoeste 0.2 -- -- 97
2021-02-17 20:00:00 12.7 16 Sudoeste 38 Sur 1.4 -- -- 97
2021-02-17 19:00:00 12.7 25 Sur 70 Sudoeste 3.8 -- -- 95
2021-02-17 18:00:00 13.4 22 Sur 47 Sur 0.4 -- -- 95
2021-02-17 17:00:00 12.1 13 Sur 33 Sudoeste 5.8 -- -- 98
2021-02-17 16:00:00 13 17 Sur 43 Sudoeste 0.8 -- -- 90
2021-02-17 15:00:00 14.6 18 Sur 49 Sudoeste 0 -- -- 85
2021-02-17 14:00:00 14.5 24 Sudoeste 44 Sudoeste 0 -- -- 84
2021-02-17 13:00:00 14.3 15 Sudoeste 31 Sudoeste 0 -- -- 85
2021-02-17 12:00:00 13.4 14 Sudoeste 35 Sudoeste 0 -- -- 84
2021-02-17 11:00:00 12.9 12 Sur 21 Sur 0 -- -- 85
2021-02-17 10:00:00 9.7 9 Sudeste 16 Sudeste 0 -- -- 94
2021-02-17 09:00:00 9.1 8 Sudeste 17 Sudeste 0 -- -- 94
2021-02-17 08:00:00 8.7 8 Sudeste 16 Sudeste 0 -- -- 95
2021-02-17 07:00:00 8.6 8 Sudeste 12 Sudeste 0 -- -- 95
2021-02-17 06:00:00 8.8 7 Sudeste 13 Sudeste 0 -- -- 93
2021-02-17 05:00:00 10 9 Sudeste 19 Sur 0 -- -- 90
2021-02-17 04:00:00 10.3 7 Sudeste 16 Sudeste 0 -- -- 90
2021-02-17 03:00:00 10.9 10 Sur 20 Sudeste 0 -- -- 89
2021-02-17 02:00:00 11.4 9 Sur 21 Sur 0 -- -- 90
2021-02-17 01:00:00 11.6 10 Sur 19 Sur 0 -- -- 92
2021-02-17 00:00:00 11.6 10 Sur 25 Sudoeste 0 -- -- 92
2021-02-16 23:00:00 11.7 8 Sur 18 Sudoeste 0 -- -- 90
2021-02-16 22:00:00 11.8 7 Sur 17 Sudoeste 0 -- -- 90
2021-02-16 21:00:00 12.4 8 Sur 16 Sudoeste 0 -- -- 91
2021-02-16 20:00:00 12.5 7 Sudoeste 16 Sudoeste 0 -- -- 91
2021-02-16 19:00:00 13 10 Sudoeste 22 Sudoeste 0 -- -- 87
2021-02-16 18:00:00 14.4 11 Sudoeste 26 Sudoeste 0 -- -- 74
2021-02-16 17:00:00 14.9 14 Sudoeste 28 Sur 0 -- -- 77
2021-02-16 16:00:00 14.9 15 Sudoeste 30 Sudoeste 0 -- -- 77
2021-02-16 15:00:00 14.3 19 Sudoeste 33 Sudoeste 0 -- -- 80
2021-02-16 14:00:00 14 16 Sudoeste 31 Sudoeste 0 -- -- 82
2021-02-16 13:00:00 13.7 14 Sudoeste 29 Oeste 0.2 -- -- 87
2021-02-16 12:00:00 13.2 14 Sudoeste 31 Sudoeste 0 -- -- 92
2021-02-16 11:00:00 12.4 12 Sudoeste 23 Sudoeste 0 -- -- 98
2021-02-16 10:00:00 11.7 11 Sudoeste 20 Sur 0.6 -- -- 99
2021-02-16 09:00:00 11.4 9 Sudoeste 18 Sur 0.8 -- -- 99
2021-02-16 08:00:00 11.1 7 Sudoeste 33 Oeste 2.2 -- -- 99
2021-02-16 07:00:00 11.2 21 Oeste 61 Sur 10.2 -- -- 97
2021-02-16 06:00:00 13.5 24 Sudoeste 61 Sudoeste 2.6 -- -- 93
2021-02-16 05:00:00 14.3 26 Sur 53 Sudoeste 0 -- -- 88
2021-02-16 04:00:00 14.2 20 Sur 38 Sudoeste 0 -- -- 90
2021-02-16 03:00:00 14.4 15 Sur 44 Sudoeste 0 -- -- 89
2021-02-16 02:00:00 14.6 23 Sur 44 Sudoeste 0 -- -- 88
2021-02-16 01:00:00 14.5 15 Sur 29 Sur 0 -- -- 88
2021-02-16 00:00:00 14.6 18 Sur 35 Sur 0 -- -- 87
2021-02-15 23:00:00 14.6 13 Sur 40 Sudoeste 0 -- -- 85
2021-02-15 22:00:00 14.1 17 Sur 37 Sur 0 -- -- 85
2021-02-15 21:00:00 13.8 12 Sudoeste 25 Sudoeste 0 -- -- 86
2021-02-15 20:00:00 14.8 13 Sudoeste 39 Sudoeste 0 -- -- 79
2021-02-15 19:00:00 15.9 8 Sudoeste 26 Sudoeste 0 -- -- 68
2021-02-15 18:00:00 17.3 14 Sudoeste 34 Sudoeste 0 -- -- 63
2021-02-15 17:00:00 19.2 20 Sudoeste 42 Sur 0 -- -- 50
2021-02-15 16:00:00 19.9 16 Sudoeste 35 Sudoeste 0 -- -- 44
2021-02-15 15:00:00 19.2 15 Sudoeste 28 Sudoeste 0 -- -- 54
2021-02-15 14:00:00 18.8 12 Noroeste 31 Sur 0 -- -- 67
2021-02-15 13:00:00 -- 14 Sur 44 Sur 0 -- -- --
2021-02-15 12:00:00 19.1 14 Sur 32 Sudeste 0 -- -- 55
2021-02-15 11:00:00 17.7 14 Sur 31 Sur 0 -- -- 60
2021-02-15 10:00:00 16.4 12 Sur 21 Sur 0 -- -- 63
2021-02-15 09:00:00 14.5 6 Sur 16 Sur 0 -- -- 68
2021-02-15 08:00:00 14.9 7 Sudoeste 25 Sur 0 -- -- 68
2021-02-15 07:00:00 15.2 10 Sudoeste 21 Sudoeste 0 -- -- 67
2021-02-15 06:00:00 15.3 7 Sudoeste 23 Sur 0 -- -- 65
2021-02-15 05:00:00 15 11 Sur 23 Sur 0 -- -- 64
2021-02-15 04:00:00 15 11 Sur 31 Sur 0 -- -- 58
2021-02-15 03:00:00 15.2 10 Sur 22 Sudoeste 0 -- -- 55
2021-02-15 02:00:00 14.9 9 Sur 26 Sur 0 -- -- 58
2021-02-15 01:00:00 14.8 11 Sur 31 Sur 0 -- -- 55
2021-02-15 00:00:00 15 9 Sur 31 Sur 0 -- -- 51
2021-02-14 23:00:00 15.2 14 Sur 39 Sur 0 -- -- 48
2021-02-14 22:00:00 14.6 14 Sur 32 Sur 0 -- -- 55
2021-02-14 21:00:00 14.7 16 Sudoeste 32 Sudoeste 0 -- -- 57
2021-02-14 20:00:00 14.8 15 Sudoeste 35 Sudoeste 0 -- -- 67
2021-02-14 19:00:00 15 18 Sur 36 Sudoeste 0 -- -- 70
2021-02-14 18:00:00 15.8 19 Sudoeste 39 Sudoeste 0 -- -- 70
2021-02-14 17:00:00 16.6 17 Sudoeste 41 Sudoeste 0 -- -- 69
2021-02-14 16:00:00 16.6 23 Sudoeste 56 Sudoeste 0 -- -- 66
2021-02-14 15:00:00 16.5 23 Sudoeste 50 Sudoeste 0 -- -- 65
2021-02-14 14:00:00 16.8 24 Sudoeste 53 Sur 0 -- -- 58
2021-02-14 13:00:00 16.8 19 Sudoeste 35 Sur 0 -- -- 60
2021-02-14 12:00:00 16.8 11 Sudoeste 23 Sudoeste 0 -- -- 59
2021-02-14 11:00:00 14.9 3 Este 11 Sudeste 0 -- -- 78
2021-02-14 10:00:00 12.7 7 Sudeste 21 Sur 0 -- -- 83
2021-02-14 09:00:00 9.9 3 Sur 11 Sudeste 0 -- -- 100
2021-02-14 08:00:00 9.6 5 Sudeste 7 Sudeste 0 -- -- 99
2021-02-14 07:00:00 9.8 4 Sudeste 7 Sur 0 -- -- 99
2021-02-14 06:00:00 10.5 4 Sur 10 Sudoeste 0 -- -- 96
2021-02-14 05:00:00 11.6 5 Sur 10 Sur 0 -- -- 93
2021-02-14 04:00:00 13 10 Sur 27 Sur 0 -- -- 89
2021-02-14 03:00:00 13.6 15 Sur 31 Sudoeste 0 -- -- 89
2021-02-14 02:00:00 13.7 13 Sudoeste 26 Sudoeste 0 -- -- 90
2021-02-14 01:00:00 13.4 8 Sudoeste 25 Sudoeste 0 -- -- 92
2021-02-14 00:00:00 13.3 9 Sudoeste 18 Sudoeste 0 -- -- 91
2021-02-13 23:00:00 13.2 3 Nordeste 12 Norte 0 -- -- 89
2021-02-13 22:00:00 14 2 Sudoeste 26 Sur 0 -- -- 84
2021-02-13 21:00:00 13.8 14 Sur 28 Sur 0 -- -- 87
2021-02-13 20:00:00 13.6 8 Sur 22 Sur 0 -- -- 95
2021-02-13 19:00:00 13.8 9 Sur 21 Sur 0 -- -- 95
2021-02-13 18:00:00 14.2 11 Sudoeste 24 Sudoeste 0 -- -- 92
2021-02-13 17:00:00 14.8 6 Sudoeste 37 Sur 0 -- -- 93
2021-02-13 16:00:00 14.3 15 Sur 35 Sudoeste 0 -- -- 95
2021-02-13 15:00:00 13.7 14 Sur 34 Sudoeste 0 -- -- 97
2021-02-13 14:00:00 13.7 14 Sur 39 Sur 0 -- -- 98
2021-02-13 13:00:00 13.8 14 Sur 37 Sur 0 -- -- 97
2021-02-13 08:00:00 -- -- -- -- -- -- -- -- --
2021-02-13 07:00:00 12.8 14 Sur 31 Sur 0 -- -- 87
2021-02-13 06:00:00 12.5 14 Sur 28 Sur 0 -- -- 85
2021-02-13 05:00:00 12.4 10 Sur 32 Sur 0 -- -- 86
2021-02-13 04:00:00 12.4 10 Sur 26 Sur 0 -- -- 88
2021-02-13 03:00:00 12.3 12 Sur 25 Sur 0 -- -- 90
2021-02-13 02:00:00 12.4 12 Sur 26 Sur 0 -- -- 88
2021-02-13 01:00:00 12.2 7 Sur 22 Sur 0 -- -- 90
2021-02-13 00:00:00 12.2 11 Sur 21 Sur 0 -- -- 90
2021-02-12 23:00:00 12.3 12 Sur 22 Sur 0 -- -- 93
2021-02-12 22:00:00 12.5 10 Sur 22 Sur 0 -- -- 94
2021-02-12 21:00:00 12.5 9 Sur 20 Sur 0 -- -- 94
2021-02-12 20:00:00 12.7 13 Sur 23 Sur 0 -- -- 93
2021-02-12 19:00:00 12.9 7 Sur 21 Sudoeste 0 -- -- 91
2021-02-12 18:00:00 13.6 14 Sudoeste 29 Sudoeste 0 -- -- 88
2021-02-12 17:00:00 13.8 15 Sudoeste 27 Sur 0 -- -- 88
2021-02-12 16:00:00 14.4 12 Sudoeste 26 Sudoeste 0 -- -- 81
2021-02-12 15:00:00 14.7 17 Sudoeste 27 Sudoeste 0 -- -- 76
2021-02-12 14:00:00 13.9 16 Sudoeste 27 Sudoeste 0 -- -- 85
2021-02-12 13:00:00 14 15 Sudoeste 24 Sudoeste 0 -- -- 86
2021-02-12 12:00:00 13.2 12 Sudoeste 20 Sudoeste 0 -- -- 92
2021-02-12 11:00:00 12.3 8 Sudoeste 19 Sudoeste 0 -- -- 98
2021-02-12 10:00:00 12 10 Sudoeste 21 Sudoeste 0.4 -- -- 99
2021-02-12 09:00:00 11.7 9 Sudoeste 19 Sudoeste 0 -- -- 99
2021-02-12 08:00:00 11.4 8 Sudoeste 21 Sudoeste 0 -- -- 97
2021-02-12 07:00:00 12.1 13 Oeste 26 Sudoeste 0 -- -- 95
2021-02-12 06:00:00 12.2 12 Oeste 23 Sudoeste 0 -- -- 97
2021-02-12 05:00:00 12.2 13 Oeste 24 Sudoeste 0 -- -- 97
2021-02-12 04:00:00 12.2 13 Oeste 25 Sudoeste 0 -- -- 96
2021-02-12 03:00:00 12.2 13 Sudoeste 23 Sudoeste 0.2 -- -- 98
2021-02-12 02:00:00 11.9 12 Sudoeste 27 Oeste 0.2 -- -- 100
2021-02-12 01:00:00 12.4 19 Oeste 38 Sudoeste 1 -- -- 100
2021-02-12 00:00:00 13 12 Sudoeste 31 Sudoeste 1.2 -- -- 100
2021-02-11 23:00:00 13.1 18 Sudoeste 33 Sudoeste 11.8 -- -- 100
2021-02-11 22:00:00 13.2 10 Sudoeste 23 Sur 1.6 -- -- 100
2021-02-11 21:00:00 13.2 16 Sur 27 Sur 1.8 -- -- 100
2021-02-11 20:00:00 13.2 12 Sur 23 Sur 2.4 -- -- 100
2021-02-11 19:00:00 13.6 12 Sudoeste 23 Sudoeste 2 -- -- 100
2021-02-11 18:00:00 13.7 15 Sudoeste 40 Sudoeste 1.2 -- -- 100
2021-02-11 17:00:00 14 23 Sudoeste 44 Sudoeste 4.8 -- -- 99
2021-02-11 16:00:00 14.8 16 Sudoeste 39 Sur 0 -- -- 98
2021-02-11 15:00:00 14.9 23 Sudoeste 41 Sudoeste 0.2 -- -- 99
2021-02-11 14:00:00 14.7 22 Sudoeste 44 Sur 0.6 -- -- 100
2021-02-11 13:00:00 14.4 23 Sur 42 Sudoeste 2.2 -- -- 100
2021-02-11 12:00:00 14.2 16 Sudoeste 34 Sur 5.8 -- -- 100
2021-02-11 11:00:00 14.2 17 Sudoeste 45 Sudoeste 0.6 -- -- 100
2021-02-11 10:00:00 14.1 19 Sur 39 Sudoeste 5.8 -- -- 100
2021-02-11 09:00:00 14 16 Sur 33 Sur 1.2 -- -- 100
2021-02-11 08:00:00 14 15 Sudoeste 40 Sudoeste 1 -- -- 98
2021-02-11 07:00:00 14.2 19 Sur 36 Sur 0 -- -- 97
2021-02-11 06:00:00 14 17 Sur 33 Sur 0 -- -- 99
2021-02-11 05:00:00 13.9 14 Sudoeste 36 Sudoeste 0 -- -- 100
2021-02-11 04:00:00 13.8 17 Sudoeste 37 Sudoeste 0 -- -- 100
2021-02-11 03:00:00 13.7 18 Sudoeste 33 Sudoeste 0.2 -- -- 100
2021-02-11 02:00:00 13.5 18 Sudoeste 35 Sur 0.8 -- -- 100
2021-02-11 01:00:00 11.3 6 Sudeste 13 Sur 4 -- -- 100
2021-02-11 00:00:00 10.3 0 Calma 4 Sudeste 1.8 -- -- 100
2021-02-10 23:00:00 10.3 0 Calma 5 Nordeste 0.6 -- -- 98
2021-02-10 22:00:00 10.2 2 Este 6 Este 0.8 -- -- 96
2021-02-10 21:00:00 10.7 2 Este 12 Sur 0 -- -- 90
2021-02-10 20:00:00 10.9 9 Sur 20 Sur 0.2 -- -- 88
2021-02-10 19:00:00 11.3 8 Sur 16 Sudoeste 0.2 -- -- 87
2021-02-10 18:00:00 12.1 8 Sur 20 Sudoeste 0 -- -- 80
2021-02-10 17:00:00 12.7 14 Sudoeste 23 Sudoeste 0 -- -- 74
2021-02-10 16:00:00 12.8 11 Sudoeste 22 Oeste 0 -- -- 70
2021-02-10 15:00:00 12.6 15 Sudoeste 27 Sudoeste 0 -- -- 68
2021-02-10 14:00:00 12.6 15 Sudoeste 23 Oeste 0 -- -- 68
2021-02-10 13:00:00 12.6 12 Sudoeste 20 Sudoeste 0 -- -- 68
2021-02-10 12:00:00 11.8 9 Sudoeste 15 Sudoeste 0 -- -- 79
2021-02-10 11:00:00 10 0 Calma 6 Este 0 -- -- 95
2021-02-10 10:00:00 8 4 Este 7 Este 0 -- -- 100
2021-02-10 09:00:00 6.2 4 Sudeste 9 Este 0 -- -- 100
2021-02-10 08:00:00 6 7 Este 9 Este 0 -- -- 100
2021-02-10 07:00:00 5.6 5 Sudeste 8 Este 0 -- -- 100
2021-02-10 06:00:00 6 6 Sudeste 8 Sur 0 -- -- 100
2021-02-10 05:00:00 6.4 5 Sudeste 9 Sur 0 -- -- 98
2021-02-10 04:00:00 7.5 6 Sur 10 Noroeste 0 -- -- 96
2021-02-10 03:00:00 8.2 6 Este 14 Oeste 0 -- -- 95
2021-02-10 02:00:00 9.3 4 Oeste 40 Noroeste 0.2 -- -- 93
2021-02-10 01:00:00 10.5 15 Oeste 30 Oeste 0 -- -- 90
2021-02-10 00:00:00 9.9 15 Oeste 29 Oeste 0 -- -- 95
2021-02-09 23:00:00 9.5 12 Oeste 46 Oeste 1.2 -- -- 94
2021-02-09 22:00:00 10.4 24 Oeste 51 Oeste 1.8 -- -- 92
2021-02-09 21:00:00 10.5 13 Sudoeste 33 Sudoeste 0.4 -- -- 92
2021-02-09 20:00:00 10.6 14 Sudoeste 29 Sudoeste 0 -- -- 84
2021-02-09 19:00:00 10.2 12 Oeste 46 Sudoeste 0 -- -- 84
2021-02-09 18:00:00 10.6 25 Oeste 45 Sudoeste 0 -- -- 83
2021-02-09 17:00:00 10.3 17 Sudoeste 35 Sudoeste 0 -- -- 85
2021-02-09 16:00:00 9 11 Sur 37 Sudoeste 1.6 -- -- 89
2021-02-09 15:00:00 11.8 17 Oeste 38 Sudoeste 0 -- -- 72
2021-02-09 14:00:00 10.7 13 Sudoeste 44 Oeste 2.2 -- -- 88
2021-02-09 13:00:00 11 19 Oeste 37 Oeste 1.2 -- -- 77
2021-02-09 12:00:00 11.3 17 Oeste 42 Oeste 0 -- -- 75
2021-02-09 11:00:00 11.1 19 Oeste 48 Oeste 0 -- -- 77
2021-02-09 10:00:00 11.2 23 Oeste 53 Oeste 0 -- -- 76
2021-02-09 09:00:00 10.9 23 Oeste 45 Oeste 0.6 -- -- 85
2021-02-09 08:00:00 10 16 Sudoeste 48 Oeste 1.6 -- -- 88
2021-02-09 07:00:00 10.5 35 Oeste 68 Oeste 1.4 -- -- 89
2021-02-09 06:00:00 12.1 22 Sudoeste 60 Sudoeste 0.4 -- -- 96
2021-02-09 05:00:00 12.2 28 Sudoeste 64 Sudoeste 2.4 -- -- 97
2021-02-09 04:00:00 11.8 22 Sur 56 Sudoeste 0.8 -- -- 97
2021-02-09 03:00:00 11.6 22 Sur 54 Sudoeste 0.8 -- -- 98
2021-02-09 02:00:00 11.2 18 Sudoeste 44 Sur 1.8 -- -- 99
2021-02-09 01:00:00 10.2 21 Sur 41 Sur 2.6 -- -- 98
2021-02-09 00:00:00 9.4 15 Sur 31 Sur 1.6 -- -- 96
2021-02-08 23:00:00 9.9 14 Sur 37 Sur 1 -- -- 95
2021-02-08 22:00:00 11 21 Sudoeste 40 Sudoeste 0.4 -- -- 91
2021-02-08 21:00:00 11.6 16 Sudoeste 32 Sudoeste 0 -- -- 88
2021-02-08 20:00:00 11.6 13 Sudoeste 31 Sudoeste 0 -- -- 88
2021-02-08 19:00:00 11 10 Sudoeste 28 Sudoeste 0.6 -- -- 94
2021-02-08 18:00:00 11.9 14 Oeste 27 Sudoeste 0 -- -- 90
2021-02-08 17:00:00 11.9 12 Oeste 30 Oeste 0.2 -- -- 93
2021-02-08 16:00:00 11.8 22 Oeste 43 Oeste 1 -- -- 93
2021-02-08 15:00:00 11.5 21 Oeste 37 Noroeste 3.8 -- -- 95
2021-02-08 14:00:00 11.7 19 Oeste 34 Noroeste 1.2 -- -- 93
2021-02-08 13:00:00 11 23 Oeste 45 Oeste 0.2 -- -- 94
2021-02-08 12:00:00 11.3 15 Oeste 35 Oeste 0.2 -- -- 93
2021-02-08 11:00:00 10.8 19 Oeste 41 Oeste 3.2 -- -- 95
2021-02-08 10:00:00 10.7 17 Sudoeste 41 Oeste 1.4 -- -- 95
2021-02-08 09:00:00 9.7 10 Sudoeste 25 Sudoeste 0.6 -- -- 95
2021-02-08 08:00:00 10 13 Oeste 29 Sudoeste 0.6 -- -- 94
2021-02-08 07:00:00 9.1 11 Sudoeste 29 Oeste 1.6 -- -- 97
2021-02-08 06:00:00 9.2 21 Oeste 40 Oeste 1.6 -- -- 96
2021-02-08 05:00:00 9.1 8 Sudoeste 37 Oeste 2.8 -- -- 96
2021-02-08 04:00:00 11 11 Sudoeste 31 Sudoeste 0 -- -- 90
2021-02-08 03:00:00 11.2 17 Oeste 29 Sudoeste 0 -- -- 90
2021-02-08 02:00:00 11 13 Sudoeste 31 Sudoeste 0.2 -- -- 93
2021-02-08 01:00:00 11.1 11 Sudoeste 28 Sudoeste 0 -- -- 97
2021-02-08 00:00:00 11.4 13 Sudoeste 23 Oeste 0 -- -- 100
2021-02-07 23:00:00 11 15 Oeste 49 Oeste 2.4 -- -- 100
2021-02-07 22:00:00 12.6 22 Sudoeste 39 Sudoeste 1.4 -- -- 100
2021-02-07 21:00:00 12.2 17 Sudoeste 42 Sur 3.4 -- -- 100
2021-02-07 20:00:00 12.4 21 Sudoeste 41 Sudoeste 3.6 -- -- 100
2021-02-07 19:00:00 11 15 Sur 41 Sur 4.6 -- -- 99
2021-02-07 18:00:00 10.2 19 Sur 41 Sur 2.2 -- -- 98
2021-02-07 17:00:00 10 21 Sur 40 Sur 0.4 -- -- 97
2021-02-07 16:00:00 9.7 21 Sur 38 Sur 0.4 -- -- 98
2021-02-07 15:00:00 8.9 13 Sur 25 Sur 0.6 -- -- 97
2021-02-07 14:00:00 8.9 14 Sur 28 Sur 0.2 -- -- 95
2021-02-07 13:00:00 7.7 14 Sudeste 26 Sur 0 -- -- 92
2021-02-07 12:00:00 8.3 13 Sur 21 Sur 0 -- -- 93
2021-02-07 11:00:00 5.9 8 Este 15 Este 0 -- -- 98
2021-02-07 10:00:00 5.2 4 Este 10 Este 0.2 -- -- 97
2021-02-07 09:00:00 4.7 7 Este 11 Este 0 -- -- 98
2021-02-07 08:00:00 4.2 5 Este 9 Este 0.2 -- -- 99
2021-02-07 07:00:00 3.5 3 Sudeste 9 Este 0 -- -- 99
2021-02-07 06:00:00 3 2 Nordeste 15 Este 0 -- -- 99
2021-02-07 05:00:00 2.6 7 Sudeste 13 Este 0 -- -- 100
2021-02-07 04:00:00 2.8 5 Sudeste 7 Este 0 -- -- 99
2021-02-07 03:00:00 3.1 4 Sudeste 10 Sudeste 0 -- -- 98
2021-02-07 02:00:00 3.5 3 Sudeste 7 Sudeste 0 -- -- 97
2021-02-07 01:00:00 4.1 5 Sudeste 7 Sudeste 0 -- -- 95
2021-02-07 00:00:00 4.8 4 Sudeste 7 Sudeste 0 -- -- 92
2021-02-06 23:00:00 6.2 6 Oeste 10 Noroeste 0 -- -- 90
2021-02-06 22:00:00 6.9 5 Sudeste 12 Nordeste 0 -- -- 84
2021-02-06 21:00:00 8.1 8 Norte 17 Norte 0 -- -- 80
2021-02-06 20:00:00 8.5 9 Nordeste 22 Nordeste 0 -- -- 74
2021-02-06 19:00:00 9.3 10 Nordeste 26 Nordeste 0 -- -- 72
2021-02-06 18:00:00 11 14 Norte 35 Nordeste 0 -- -- 65
2021-02-06 17:00:00 11.7 15 Nordeste 35 Nordeste 0 -- -- 63
2021-02-06 16:00:00 11.9 14 Nordeste 33 Nordeste 0 -- -- 61
2021-02-06 15:00:00 11.1 16 Nordeste 33 Norte 0 -- -- 68
2021-02-06 14:00:00 11.1 13 Nordeste 36 Este 0 -- -- 71
2021-02-06 13:00:00 10.6 17 Nordeste 36 Nordeste 0 -- -- 73
2021-02-06 12:00:00 10 17 Nordeste 33 Norte 0 -- -- 79
2021-02-06 11:00:00 10.1 16 Nordeste 37 Nordeste 0 -- -- 77
2021-02-06 10:00:00 9.5 16 Nordeste 32 Nordeste 0 -- -- 82
2021-02-06 09:00:00 9.3 17 Nordeste 32 Nordeste 0 -- -- 82
2021-02-06 08:00:00 9.6 10 Nordeste 30 Nordeste 0 -- -- 79
2021-02-06 07:00:00 9.7 14 Nordeste 33 Norte 0 -- -- 79
2021-02-06 06:00:00 9.5 17 Nordeste 41 Nordeste 0 -- -- 83
2021-02-06 05:00:00 9.6 19 Nordeste 41 Nordeste 0 -- -- 83
2021-02-06 04:00:00 9.6 15 Nordeste 36 Nordeste 0 -- -- 83
2021-02-06 03:00:00 9.5 14 Nordeste 37 Este 0 -- -- 84
2021-02-06 02:00:00 9.6 21 Nordeste 36 Nordeste 0.2 -- -- 88
2021-02-06 01:00:00 9.3 14 Nordeste 31 Nordeste 0.2 -- -- 91
2021-02-06 00:00:00 10.1 14 Nordeste 27 Nordeste 0 -- -- 87
2021-02-05 23:00:00 10.2 14 Nordeste 40 Norte 0 -- -- 86
2021-02-05 22:00:00 10.4 14 Nordeste 33 Nordeste 0 -- -- 86
2021-02-05 21:00:00 10.9 18 Nordeste 40 Nordeste 0 -- -- 81
2021-02-05 20:00:00 11.1 19 Nordeste 36 Norte 0 -- -- 81
2021-02-05 19:00:00 11.4 14 Nordeste 36 Nordeste 0 -- -- 81
2021-02-05 18:00:00 12 18 Nordeste 36 Norte 0 -- -- 80
2021-02-05 17:00:00 12.3 13 Nordeste 37 Este 0 -- -- 79
2021-02-05 16:00:00 12.3 18 Nordeste 39 Norte 0 -- -- 79
2021-02-05 15:00:00 12.8 17 Nordeste 28 Nordeste 0 -- -- 79
2021-02-05 14:00:00 12.6 13 Nordeste 26 Nordeste 0 -- -- 81
2021-02-05 13:00:00 11.4 13 Este 24 Nordeste 0 -- -- 88
2021-02-05 12:00:00 9.9 9 Nordeste 35 Nordeste 0 -- -- 91
2021-02-05 11:00:00 9.1 15 Este 28 Este 0 -- -- 96
2021-02-05 10:00:00 7.7 7 Este 19 Sudeste 0 -- -- 100
2021-02-05 09:00:00 6.3 5 Nordeste 14 Nordeste 0 -- -- 100
2021-02-05 08:00:00 5.7 3 Sudeste 5 Sur 0 -- -- 100
2021-02-05 07:00:00 6.4 4 Sudeste 6 Este 0 -- -- 100
2021-02-05 06:00:00 7 2 Sur 6 Sur 0 -- -- 100
2021-02-05 05:00:00 7.1 3 Sur 8 Sur 0 -- -- 100
2021-02-05 04:00:00 7.6 4 Sudeste 7 Sudeste 0 -- -- 100
2021-02-05 03:00:00 7.7 4 Este 5 Sudeste 0 -- -- 100
2021-02-05 02:00:00 8.1 2 Sudeste 4 Este 0 -- -- 100
2021-02-05 01:00:00 8.7 2 Nordeste 14 Nordeste 0 -- -- 99
2021-02-05 00:00:00 9.7 8 Norte 14 Noroeste 0 -- -- 99
2021-02-04 23:00:00 9.7 3 Sudeste 7 Sur 0 -- -- 99
2021-02-04 22:00:00 10.2 0 Calma 4 Sudeste 0 -- -- 99
2021-02-04 21:00:00 10.4 3 Sudeste 6 Sur 0.2 -- -- 98
2021-02-04 20:00:00 10.7 3 Sur 6 Sudeste 0.4 -- -- 98
2021-02-04 19:00:00 11.1 0 Calma 17 Sudoeste 1.6 -- -- 95
2021-02-04 18:00:00 11.8 13 Oeste 21 Oeste 0.6 -- -- 91
2021-02-04 17:00:00 13.6 7 Oeste 19 Sudoeste 0 -- -- 72
2021-02-04 16:00:00 14.3 6 Sudoeste 19 Sudeste 0 -- -- 68
2021-02-04 15:00:00 14.4 8 Sudeste 18 Sudeste 0 -- -- 71
2021-02-04 14:00:00 14.1 11 Sudeste 18 Sudeste 0 -- -- 73
2021-02-04 13:00:00 13.3 8 Este 22 Sudeste 0 -- -- 81
2021-02-04 12:00:00 12.9 10 Sudeste 19 Sudeste 0 -- -- 83
2021-02-04 11:00:00 11.3 11 Sudeste 19 Sudeste 0 -- -- 91
2021-02-04 10:00:00 8.4 7 Este 12 Este 0 -- -- 100
2021-02-04 09:00:00 8.2 6 Este 18 Sudeste 0 -- -- 98
2021-02-04 08:00:00 8.5 4 Sudeste 10 Sur 0 -- -- 96
2021-02-04 07:00:00 9.7 6 Sur 12 Sur 0 -- -- 95
2021-02-04 06:00:00 10.1 6 Sur 12 Sur 0 -- -- 94
2021-02-04 05:00:00 10.3 6 Sur 15 Sur 0 -- -- 92
2021-02-04 04:00:00 10.7 6 Sur 16 Sur 0 -- -- 92
2021-02-04 03:00:00 11.1 7 Sur 19 Sur 0.2 -- -- 93
2021-02-04 02:00:00 11.2 11 Sur 27 Sur 0 -- -- 92
2021-02-04 01:00:00 11 14 Sur 31 Sur 0.2 -- -- 93
2021-02-04 00:00:00 10.3 14 Sur 48 Sudoeste 2.2 -- -- 92
2021-02-03 23:00:00 12.6 16 Sur 38 Sur 0.2 -- -- 88
2021-02-03 22:00:00 12.6 14 Sur 39 Sur 0 -- -- 86
2021-02-03 21:00:00 12.6 13 Sur 37 Sudoeste 0 -- -- 85
2021-02-03 20:00:00 12.2 15 Sur 36 Sudeste 0 -- -- 84
2021-02-03 19:00:00 12.2 13 Sur 29 Sudeste 0 -- -- 82
2021-02-03 18:00:00 12.5 11 Sur 33 Sur 0 -- -- 82
2021-02-03 17:00:00 13.4 18 Sur 45 Sudoeste 0 -- -- 71
2021-02-03 16:00:00 14.3 22 Sur 41 Sur 0 -- -- 81
2021-02-03 15:00:00 14.6 16 Sudoeste 47 Sudoeste 0 -- -- 80
2021-02-03 14:00:00 14.7 23 Sudoeste 49 Sudoeste 0 -- -- 80
2021-02-03 13:00:00 13.3 11 Oeste 39 Sudoeste 0 -- -- 86
2021-02-03 12:00:00 14.2 21 Sudoeste 40 Sur 0 -- -- 84
2021-02-03 11:00:00 13.3 15 Sudoeste 32 Sudoeste 0 -- -- 88
2021-02-03 10:00:00 13 15 Sudoeste 33 Sudoeste 0 -- -- 87
2021-02-03 09:00:00 12.5 18 Sudoeste 41 Sudoeste 0 -- -- 85
2021-02-03 08:00:00 12.5 13 Sudoeste 31 Sur 0 -- -- 89
2021-02-03 07:00:00 12.5 15 Sudoeste 27 Sudoeste 0 -- -- 91
2021-02-03 06:00:00 12 17 Sudoeste 33 Sudoeste 0 -- -- 89
2021-02-03 05:00:00 11 15 Sudoeste 52 Sudoeste 1.6 -- -- 91
2021-02-03 04:00:00 13.3 19 Sudoeste 37 Sudoeste 0 -- -- 87
2021-02-03 03:00:00 13.2 19 Sudoeste 49 Sudoeste 0 -- -- 89
2021-02-03 02:00:00 13.7 27 Sudoeste 49 Sudoeste 0 -- -- 90
2021-02-03 01:00:00 13.9 28 Sudoeste 53 Sur 0.2 -- -- 93
2021-02-03 00:00:00 13.6 20 Sudoeste 44 Sudoeste 0 -- -- 96